Time;durP1;ratioP1;P1;durP2;ratioP2;P2;SDS_P1;SDS_P2;PMS_P1;PMS_P2;Temp;Humidity;BMP_temperature;BMP_pressure;BME280_temperature;BME280_humidity;BME280_pressure;Samples;Min_cycle;Max_cycle;Signal;HPM_P1;HPM_P2
2023/01/23 00:01:12;;;;;;;0.80;0.60;;;0.80;99.90;;;;;;5080745;28;20489;-70
2023/01/23 00:03:38;;;;;;;0.47;0.47;;;0.80;99.90;;;;;;5079653;28;20427;-72
2023/01/23 00:06:12;;;;;;;0.50;0.50;;;0.80;99.90;;;;;;5077270;28;20517;-69
2023/01/23 00:08:41;;;;;;;0.77;0.77;;;0.90;99.90;;;;;;5076893;28;20835;-70
2023/01/23 00:11:14;;;;;;;0.65;0.65;;;0.80;99.90;;;;;;5081262;28;20432;-70
2023/01/23 00:13:41;;;;;;;1.15;0.75;;;0.80;99.90;;;;;;5080932;28;20430;-69
2023/01/23 00:16:10;;;;;;;0.75;0.75;;;0.80;99.90;;;;;;5071100;28;20435;-70
2023/01/23 00:18:37;;;;;;;2.30;0.40;;;0.80;99.90;;;;;;5071598;28;20932;-70
2023/01/23 00:21:06;;;;;;;1.00;0.80;;;0.80;99.90;;;;;;5075723;28;20426;-69
2023/01/23 00:23:33;;;;;;;3.55;0.70;;;0.90;99.90;;;;;;5075446;28;20431;-69
2023/01/23 00:26:05;;;;;;;0.60;0.35;;;0.80;99.90;;;;;;5073810;28;20436;-70
2023/01/23 00:28:32;;;;;;;2.67;1.23;;;0.80;99.90;;;;;;5092391;28;20434;-70
2023/01/23 00:31:25;;;;;;;0.53;0.53;;;0.80;99.90;;;;;;5088899;28;20440;-69
2023/01/23 00:34:04;;;;;;;0.85;0.85;;;0.90;99.90;;;;;;5087791;28;20456;-69
2023/01/23 00:36:34;;;;;;;1.08;0.85;;;0.90;99.90;;;;;;5083833;28;20439;-69
2023/01/23 00:39:03;;;;;;;0.60;0.60;;;0.90;99.90;;;;;;5082048;28;20512;-69
2023/01/23 00:41:29;;;;;;;0.25;0.25;;;0.90;99.90;;;;;;5077565;28;20434;-69
2023/01/23 00:43:56;;;;;;;0.98;0.82;;;0.90;99.90;;;;;;5088987;28;20428;-70
2023/01/23 00:46:23;;;;;;;0.52;0.47;;;0.90;99.90;;;;;;5085845;28;20863;-69
2023/01/23 00:48:50;;;;;;;0.57;0.50;;;0.90;99.90;;;;;;5090324;28;20453;-69
2023/01/23 00:51:17;;;;;;;0.52;0.52;;;0.90;99.90;;;;;;5076642;28;21127;-69
2023/01/23 00:53:44;;;;;;;0.50;0.50;;;0.90;99.90;;;;;;5085137;28;20446;-69
2023/01/23 00:56:11;;;;;;;0.40;0.40;;;0.90;99.90;;;;;;5079473;28;20498;-69
2023/01/23 00:58:39;;;;;;;0.70;0.70;;;0.80;99.90;;;;;;5085967;28;20419;-69
2023/01/23 01:01:13;;;;;;;0.57;0.57;;;0.80;99.90;;;;;;5089843;28;20431;-69
2023/01/23 01:03:41;;;;;;;0.90;0.90;;;0.80;99.90;;;;;;5089432;28;20433;-69
2023/01/23 01:06:08;;;;;;;0.50;0.50;;;0.80;99.90;;;;;;5082405;28;20428;-69
2023/01/23 01:08:36;;;;;;;1.77;0.77;;;0.70;99.90;;;;;;5078765;28;20470;-69
2023/01/23 01:11:07;;;;;;;0.82;0.82;;;0.70;99.90;;;;;;5092093;28;20432;-69
2023/01/23 01:13:34;;;;;;;1.00;0.70;;;0.70;99.90;;;;;;5088629;28;20502;-69
2023/01/23 01:16:01;;;;;;;1.30;0.90;;;0.70;99.90;;;;;;5075197;28;20422;-69
2023/01/23 01:18:28;;;;;;;1.30;0.88;;;0.70;99.90;;;;;;5080345;28;20448;-70
2023/01/23 01:20:58;;;;;;;1.30;1.10;;;0.70;99.90;;;;;;5077968;28;20427;-70
2023/01/23 01:23:25;;;;;;;0.80;0.77;;;0.70;99.90;;;;;;5074602;28;20463;-69
2023/01/23 01:25:52;;;;;;;0.40;0.40;;;0.80;99.90;;;;;;5076822;28;20910;-69
2023/01/23 01:28:18;;;;;;;1.00;0.85;;;0.80;99.90;;;;;;5077267;28;20434;-69
2023/01/23 01:30:45;;;;;;;1.88;0.65;;;0.70;99.90;;;;;;5082439;28;20437;-69
2023/01/23 01:33:15;;;;;;;0.90;0.90;;;0.70;99.90;;;;;;5072605;28;20432;-68
2023/01/23 01:35:44;;;;;;;0.50;0.50;;;0.70;99.90;;;;;;5081821;28;20425;-68
2023/01/23 01:38:10;;;;;;;1.20;0.55;;;0.60;99.90;;;;;;5076688;28;20432;-68
2023/01/23 01:40:37;;;;;;;1.50;0.70;;;0.50;99.90;;;;;;5081236;28;20434;-68
2023/01/23 01:43:07;;;;;;;2.77;1.10;;;0.40;99.90;;;;;;5074548;28;20526;-67
2023/01/23 01:46:11;;;;;;;3.10;0.83;;;0.30;99.90;;;;;;5076422;28;20431;-68
2023/01/23 01:49:02;;;;;;;2.80;1.10;;;0.20;99.90;;;;;;5070943;28;20434;-68
2023/01/23 01:51:41;;;;;;;0.70;0.63;;;0.10;99.90;;;;;;5074877;28;20433;-68
2023/01/23 01:54:28;;;;;;;1.73;1.10;;;0.00;99.90;;;;;;5066291;28;20429;-68
2023/01/23 01:57:04;;;;;;;1.20;0.80;;;0.00;99.90;;;;;;5070280;28;20422;-68
2023/01/23 01:59:39;;;;;;;0.82;0.73;;;0.00;99.90;;;;;;5074094;28;20429;-68
2023/01/23 02:02:11;;;;;;;0.70;0.70;;;0.00;99.90;;;;;;5076699;28;20433;-68
2023/01/23 02:04:46;;;;;;;2.00;1.23;;;0.00;99.90;;;;;;5073560;28;20484;-68
2023/01/23 02:07:45;;;;;;;0.98;0.98;;;-0.10;99.90;;;;;;5077849;28;20465;-68
2023/01/23 02:10:15;;;;;;;1.27;0.82;;;-0.10;99.90;;;;;;5077588;28;20515;-68
2023/01/23 02:12:49;;;;;;;0.90;0.60;;;0.00;99.90;;;;;;5078133;28;20428;-68
2023/01/23 02:15:18;;;;;;;0.70;0.50;;;0.10;99.90;;;;;;5073870;28;20426;-68
2023/01/23 02:17:46;;;;;;;0.80;0.80;;;0.20;99.90;;;;;;5072556;28;20420;-68
2023/01/23 02:20:16;;;;;;;0.60;0.60;;;0.30;99.90;;;;;;5074370;28;20941;-67
2023/01/23 02:23:07;;;;;;;1.00;0.65;;;0.40;99.90;;;;;;5079321;28;20473;-68
2023/01/23 02:25:52;;;;;;;1.35;1.25;;;0.40;99.90;;;;;;5078089;28;20462;-68
2023/01/23 02:28:19;;;;;;;0.55;0.55;;;0.40;99.90;;;;;;5080247;28;22053;-68
2023/01/23 02:30:49;;;;;;;1.33;0.73;;;0.40;99.90;;;;;;5078908;28;20430;-68
2023/01/23 02:33:19;;;;;;;0.60;0.60;;;0.20;99.90;;;;;;5074347;28;20478;-68
2023/01/23 02:35:46;;;;;;;1.10;1.00;;;0.10;99.90;;;;;;5079929;28;20590;-68
2023/01/23 02:38:19;;;;;;;1.15;1.10;;;-0.10;99.90;;;;;;5072197;28;20443;-68
2023/01/23 02:40:46;;;;;;;0.75;0.73;;;-0.10;99.90;;;;;;5077630;28;20916;-68
2023/01/23 02:43:15;;;;;;;0.30;0.20;;;-0.20;99.90;;;;;;5081217;28;20431;-68
2023/01/23 02:45:43;;;;;;;0.80;0.47;;;-0.30;99.90;;;;;;5080052;28;20431;-68
2023/01/23 02:48:10;;;;;;;0.60;0.40;;;-0.40;99.90;;;;;;5081258;28;20811;-68
2023/01/23 02:50:40;;;;;;;1.13;0.88;;;-0.40;99.90;;;;;;5077594;28;20431;-68
2023/01/23 02:53:07;;;;;;;0.68;0.50;;;-0.50;99.90;;;;;;5073148;28;20431;-68
2023/01/23 02:55:36;;;;;;;0.60;0.52;;;-0.50;99.90;;;;;;5082363;28;20463;-68
2023/01/23 03:00:48;;;;;;;0.77;0.75;;;-0.70;99.90;;;;;;5091212;28;20423;-68
2023/01/23 03:03:15;;;;;;;0.80;0.80;;;-0.70;99.90;;;;;;5078579;28;20437;-68
2023/01/23 03:05:42;;;;;;;0.10;0.10;;;-0.70;99.90;;;;;;5077274;28;20818;-68
2023/01/23 03:08:12;;;;;;;0.30;0.30;;;-0.70;99.90;;;;;;5083166;28;20438;-68
2023/01/23 03:10:39;;;;;;;1.20;0.93;;;-0.70;99.90;;;;;;5089477;28;20434;-68
2023/01/23 03:13:10;;;;;;;0.70;0.70;;;-0.70;99.90;;;;;;5078411;28;20423;-68
2023/01/23 03:15:38;;;;;;;1.10;0.80;;;-0.70;99.90;;;;;;5080921;28;20903;-68
2023/01/23 03:18:04;;;;;;;0.45;0.45;;;-0.70;99.90;;;;;;5075062;28;20426;-68
2023/01/23 03:20:41;;;;;;;0.90;0.90;;;-0.60;99.90;;;;;;5082985;28;20857;-68
2023/01/23 03:23:08;;;;;;;1.80;0.60;;;-0.40;99.90;;;;;;5088201;28;20425;-68
2023/01/23 03:25:34;;;;;;;1.10;0.57;;;-0.30;99.90;;;;;;5078034;28;21174;-68
2023/01/23 03:28:01;;;;;;;1.50;1.10;;;-0.10;99.90;;;;;;5084333;28;20941;-68
2023/01/23 03:30:28;;;;;;;0.22;0.22;;;0.00;99.90;;;;;;5079435;28;20446;-69
2023/01/23 03:32:58;;;;;;;1.40;0.90;;;0.20;99.90;;;;;;5074459;28;20455;-68
2023/01/23 03:35:24;;;;;;;2.10;1.10;;;0.30;99.90;;;;;;5076900;28;20429;-70
2023/01/23 03:37:51;;;;;;;1.02;0.93;;;0.30;99.90;;;;;;5079589;27;20800;-68
2023/01/23 03:43:09;;;;;;;2.70;0.90;;;0.40;99.90;;;;;;5072233;28;20423;-68
2023/01/23 03:45:36;;;;;;;0.80;0.80;;;0.50;99.90;;;;;;5081936;28;20435;-68
2023/01/23 03:48:03;;;;;;;0.85;0.63;;;0.50;99.90;;;;;;5080262;28;20433;-68
2023/01/23 03:50:29;;;;;;;2.20;0.80;;;0.50;99.90;;;;;;5092957;28;20430;-68
2023/01/23 03:52:56;;;;;;;0.80;0.77;;;0.50;99.90;;;;;;5078040;28;20437;-68
2023/01/23 03:55:23;;;;;;;0.75;0.60;;;0.60;99.90;;;;;;5069436;28;20501;-69
2023/01/23 03:57:50;;;;;;;1.48;0.90;;;0.60;99.90;;;;;;5082755;28;20424;-68
2023/01/23 04:00:17;;;;;;;0.75;0.75;;;0.60;99.90;;;;;;5081596;28;20461;-68
2023/01/23 04:02:44;;;;;;;1.60;0.88;;;0.70;99.90;;;;;;5080596;28;20432;-68
2023/01/23 04:05:11;;;;;;;1.30;0.80;;;0.70;99.90;;;;;;5081215;28;20425;-68
2023/01/23 04:07:37;;;;;;;2.05;0.70;;;0.70;99.90;;;;;;5072869;28;20439;-68
2023/01/23 04:10:04;;;;;;;1.40;0.68;;;0.70;99.90;;;;;;5079455;28;20429;-68
2023/01/23 04:12:31;;;;;;;0.70;0.70;;;0.70;99.90;;;;;;5078423;28;20526;-69
2023/01/23 04:15:04;;;;;;;0.63;0.60;;;0.70;99.90;;;;;;5083677;28;20433;-68
2023/01/23 04:17:31;;;;;;;0.70;0.60;;;0.80;99.90;;;;;;5082653;28;20510;-68
2023/01/23 04:19:58;;;;;;;0.70;0.70;;;0.80;99.90;;;;;;5076958;28;20433;-68
2023/01/23 04:22:27;;;;;;;0.40;0.40;;;0.80;99.90;;;;;;5081769;28;20414;-69
2023/01/23 04:24:53;;;;;;;0.57;0.57;;;0.80;99.90;;;;;;5076050;28;20434;-69
2023/01/23 04:27:20;;;;;;;0.52;0.52;;;0.70;99.90;;;;;;5070214;28;20434;-68
2023/01/23 04:29:47;;;;;;;0.30;0.30;;;0.70;99.90;;;;;;5085449;28;20927;-68
2023/01/23 04:32:16;;;;;;;1.25;0.52;;;0.80;99.90;;;;;;5087199;28;20829;-68
2023/01/23 04:34:43;;;;;;;0.55;0.55;;;0.80;99.90;;;;;;5087001;28;20418;-69
2023/01/23 04:37:10;;;;;;;0.68;0.68;;;0.80;99.90;;;;;;5089303;28;20426;-69
2023/01/23 04:39:36;;;;;;;1.75;0.68;;;0.80;99.90;;;;;;5083678;28;20978;-68
2023/01/23 04:42:03;;;;;;;1.33;1.23;;;0.80;99.90;;;;;;5085613;28;20458;-68
2023/01/23 04:44:30;;;;;;;1.60;1.00;;;0.80;99.90;;;;;;5075108;28;21001;-69
2023/01/23 04:46:56;;;;;;;1.45;0.57;;;0.90;99.90;;;;;;5076134;28;20496;-68
2023/01/23 04:49:26;;;;;;;0.43;0.43;;;0.90;99.90;;;;;;5084269;28;20935;-68
2023/01/23 04:51:53;;;;;;;0.82;0.70;;;0.90;99.90;;;;;;5081341;28;20434;-69
2023/01/23 04:54:20;;;;;;;0.45;0.45;;;0.90;99.90;;;;;;5087240;28;20946;-69
2023/01/23 04:56:48;;;;;;;1.77;1.10;;;0.90;99.90;;;;;;5079140;28;20452;-69
2023/01/23 04:59:15;;;;;;;0.90;0.90;;;0.90;99.90;;;;;;5080295;28;20520;-68
2023/01/23 05:01:43;;;;;;;0.40;0.40;;;0.90;99.90;;;;;;5085056;28;20420;-68
2023/01/23 05:04:10;;;;;;;1.08;0.88;;;0.90;99.90;;;;;;5084078;28;20431;-68
2023/01/23 05:06:37;;;;;;;1.48;0.50;;;0.80;99.90;;;;;;5095186;28;20437;-68
2023/01/23 05:09:04;;;;;;;0.52;0.52;;;0.80;99.90;;;;;;5081758;28;20435;-68
2023/01/23 05:11:31;;;;;;;1.23;0.68;;;0.80;99.90;;;;;;5105306;27;20422;-68
2023/01/23 05:13:57;;;;;;;0.68;0.68;;;0.90;99.90;;;;;;5090413;28;20430;-68
2023/01/23 05:16:24;;;;;;;0.77;0.77;;;0.80;99.90;;;;;;5080594;28;20430;-69
2023/01/23 05:18:51;;;;;;;1.58;0.77;;;0.80;99.90;;;;;;5096625;28;20445;-68
2023/01/23 05:21:18;;;;;;;0.50;0.50;;;0.80;99.90;;;;;;5080081;28;20506;-68
2023/01/23 05:23:44;;;;;;;1.20;1.15;;;0.80;99.90;;;;;;5089440;28;20435;-68
2023/01/23 05:26:11;;;;;;;0.90;0.90;;;0.80;99.90;;;;;;5072906;28;20453;-68
2023/01/23 05:28:38;;;;;;;1.70;0.95;;;0.80;99.90;;;;;;5084680;28;21331;-69
2023/01/23 05:31:04;;;;;;;1.60;1.00;;;0.80;99.90;;;;;;5079913;28;20433;-68
2023/01/23 05:33:31;;;;;;;0.20;0.20;;;0.80;99.90;;;;;;5079295;28;20777;-68
2023/01/23 05:35:59;;;;;;;0.63;0.63;;;0.80;99.90;;;;;;5072757;28;20434;-68
2023/01/23 05:38:27;;;;;;;0.55;0.43;;;0.80;99.90;;;;;;5074266;28;20463;-68
2023/01/23 05:40:55;;;;;;;0.88;0.60;;;0.80;99.90;;;;;;5080711;28;20427;-68
2023/01/23 05:43:22;;;;;;;1.08;0.70;;;0.80;99.90;;;;;;5069599;28;20936;-68
2023/01/23 05:45:48;;;;;;;0.88;0.88;;;0.80;99.90;;;;;;5072264;28;20417;-68
2023/01/23 05:48:15;;;;;;;1.27;0.63;;;0.90;99.90;;;;;;5082601;28;20432;-68
2023/01/23 05:50:42;;;;;;;0.75;0.70;;;0.90;99.90;;;;;;5077553;28;20426;-68
2023/01/23 05:53:09;;;;;;;1.30;0.50;;;0.90;99.90;;;;;;5069930;28;20427;-68
2023/01/23 05:55:38;;;;;;;1.20;0.40;;;1.00;99.90;;;;;;5073604;28;20426;-68
2023/01/23 05:58:05;;;;;;;0.90;0.60;;;0.90;99.90;;;;;;5078201;28;20430;-68
2023/01/23 06:00:35;;;;;;;0.80;0.80;;;1.00;99.90;;;;;;5067260;28;20836;-68
2023/01/23 06:03:02;;;;;;;0.80;0.73;;;0.90;99.90;;;;;;5074883;28;20425;-68
2023/01/23 06:05:29;;;;;;;0.80;0.70;;;0.90;99.90;;;;;;5076282;28;20430;-68
2023/01/23 06:07:58;;;;;;;1.60;0.77;;;0.90;99.90;;;;;;5079134;28;20491;-68
2023/01/23 06:10:25;;;;;;;0.43;0.43;;;0.90;99.90;;;;;;5072151;28;20469;-68
2023/01/23 06:12:51;;;;;;;0.70;0.50;;;0.90;99.90;;;;;;5074629;28;20429;-68
2023/01/23 06:15:18;;;;;;;0.30;0.30;;;1.00;99.90;;;;;;5058489;28;20432;-69
2023/01/23 06:17:45;;;;;;;4.53;0.52;;;0.90;99.90;;;;;;5070413;28;20422;-68
2023/01/23 06:20:13;;;;;;;0.30;0.30;;;0.90;99.90;;;;;;5072391;28;20424;-68
2023/01/23 06:22:39;;;;;;;0.40;0.40;;;1.00;99.90;;;;;;5070771;28;20545;-68
2023/01/23 06:25:06;;;;;;;0.60;0.60;;;0.90;99.90;;;;;;5072530;28;20430;-68
2023/01/23 06:27:33;;;;;;;1.80;0.90;;;0.90;99.90;;;;;;5073152;28;20431;-68
2023/01/23 06:30:00;;;;;;;1.23;1.13;;;0.90;99.90;;;;;;5073303;28;20429;-68
2023/01/23 06:32:26;;;;;;;1.20;0.70;;;0.90;99.90;;;;;;5069774;28;20538;-68
2023/01/23 06:34:53;;;;;;;0.82;0.82;;;0.90;99.90;;;;;;5065368;28;20427;-68
2023/01/23 06:37:20;;;;;;;0.98;0.47;;;0.90;99.90;;;;;;5075506;28;20436;-68
2023/01/23 06:39:46;;;;;;;1.55;0.90;;;0.90;99.90;;;;;;5074471;28;20429;-68
2023/01/23 06:42:13;;;;;;;1.30;0.82;;;1.00;99.90;;;;;;5069879;28;20426;-68
2023/01/23 06:44:42;;;;;;;0.30;0.30;;;0.90;99.90;;;;;;5072697;28;20430;-68
2023/01/23 06:47:08;;;;;;;0.52;0.50;;;1.00;99.90;;;;;;5065430;28;20537;-68
2023/01/23 06:49:35;;;;;;;1.90;0.52;;;1.00;99.90;;;;;;5069765;28;20440;-68
2023/01/23 06:52:02;;;;;;;2.20;1.08;;;1.00;99.90;;;;;;5009770;28;1825566;-68
2023/01/23 06:54:29;;;;;;;1.20;0.93;;;1.00;99.90;;;;;;5071909;28;20425;-68
2023/01/23 06:56:55;;;;;;;1.15;1.15;;;1.00;99.90;;;;;;5068537;28;20985;-68
2023/01/23 06:59:22;;;;;;;1.70;0.98;;;1.00;99.90;;;;;;5061857;28;20424;-68
2023/01/23 07:01:49;;;;;;;1.08;0.88;;;1.00;99.90;;;;;;5072453;28;20430;-68
2023/01/23 07:04:15;;;;;;;1.30;1.20;;;1.10;99.90;;;;;;5075660;28;20431;-68
2023/01/23 07:06:42;;;;;;;3.40;0.80;;;1.00;99.90;;;;;;5069730;28;20450;-68
2023/01/23 07:09:12;;;;;;;0.80;0.70;;;1.00;99.90;;;;;;5084373;28;20800;-68
2023/01/23 07:11:39;;;;;;;2.90;1.80;;;1.00;99.90;;;;;;5073464;28;20933;-68
2023/01/23 07:14:05;;;;;;;0.70;0.70;;;1.00;99.90;;;;;;5074783;28;20465;-68
2023/01/23 07:16:34;;;;;;;1.38;1.27;;;1.00;99.90;;;;;;5069400;28;20896;-69
2023/01/23 07:19:02;;;;;;;1.80;1.33;;;1.00;99.90;;;;;;5085190;28;20433;-68
2023/01/23 07:21:29;;;;;;;1.92;0.55;;;1.00;99.90;;;;;;5076247;28;20430;-68
2023/01/23 07:23:56;;;;;;;1.80;0.57;;;1.00;99.90;;;;;;5085344;28;20432;-68
2023/01/23 07:26:26;;;;;;;1.20;0.70;;;0.90;99.90;;;;;;5069989;28;20423;-68
2023/01/23 07:28:52;;;;;;;0.67;0.67;;;0.90;99.90;;;;;;5074213;28;20426;-68
2023/01/23 07:31:19;;;;;;;0.57;0.57;;;0.80;99.90;;;;;;5076565;28;20810;-68
2023/01/23 07:33:52;;;;;;;0.80;0.65;;;0.80;99.90;;;;;;5077047;28;20454;-68
2023/01/23 07:36:19;;;;;;;1.25;0.90;;;0.80;99.90;;;;;;5074787;28;20430;-68
2023/01/23 07:38:45;;;;;;;0.60;0.60;;;0.90;99.90;;;;;;5071862;28;20426;-68
2023/01/23 07:41:12;;;;;;;0.65;0.65;;;0.90;99.90;;;;;;5088155;28;20418;-68
2023/01/23 07:43:39;;;;;;;0.70;0.70;;;0.90;99.90;;;;;;5079281;28;20434;-68
2023/01/23 07:46:08;;;;;;;0.70;0.63;;;1.00;99.90;;;;;;5091822;28;20541;-68
2023/01/23 07:48:36;;;;;;;0.90;0.80;;;1.00;99.90;;;;;;5087082;28;20428;-68
2023/01/23 07:51:03;;;;;;;1.85;1.52;;;1.00;99.90;;;;;;5084335;28;20509;-68
2023/01/23 07:53:33;;;;;;;0.52;0.52;;;1.10;99.90;;;;;;5097771;28;20506;-68
2023/01/23 07:56:03;;;;;;;0.80;0.80;;;1.10;99.90;;;;;;5093083;28;20511;-68
2023/01/23 07:58:31;;;;;;;0.70;0.70;;;1.20;99.90;;;;;;5080842;28;20435;-68
2023/01/23 08:00:58;;;;;;;1.40;0.60;;;1.30;99.90;;;;;;5077551;28;20422;-68
2023/01/23 08:03:27;;;;;;;0.60;0.60;;;1.60;99.90;;;;;;5087647;28;20422;-68
2023/01/23 08:05:54;;;;;;;0.87;0.87;;;1.80;99.90;;;;;;5077579;28;20510;-68
2023/01/23 08:08:21;;;;;;;2.67;0.88;;;2.00;99.90;;;;;;5082413;28;20435;-68
2023/01/23 08:10:48;;;;;;;0.60;0.47;;;2.00;99.90;;;;;;5084609;28;20934;-68
2023/01/23 08:13:14;;;;;;;1.17;1.08;;;2.00;99.90;;;;;;5080631;28;20446;-68
2023/01/23 08:15:41;;;;;;;1.13;0.90;;;1.90;99.90;;;;;;5079144;28;20434;-69
2023/01/23 08:18:08;;;;;;;0.40;0.40;;;1.90;99.90;;;;;;5082466;28;20498;-68
2023/01/23 08:20:34;;;;;;;0.30;0.30;;;1.80;99.90;;;;;;5080591;28;20430;-66
2023/01/23 08:23:02;;;;;;;0.70;0.70;;;1.80;99.90;;;;;;5088841;28;20437;-66
2023/01/23 08:25:29;;;;;;;1.00;0.80;;;1.80;99.90;;;;;;5076830;28;20482;-66
2023/01/23 08:27:56;;;;;;;0.95;0.95;;;1.90;99.90;;;;;;5077490;28;20454;-66
2023/01/23 08:30:23;;;;;;;0.60;0.60;;;1.80;99.90;;;;;;5078285;28;20442;-65
2023/01/23 08:32:49;;;;;;;0.80;0.80;;;1.80;99.90;;;;;;5074253;28;20437;-65
2023/01/23 08:35:16;;;;;;;0.50;0.50;;;1.90;99.90;;;;;;5083003;28;20774;-65
2023/01/23 08:37:45;;;;;;;0.97;0.97;;;1.90;99.90;;;;;;5079254;28;20420;-65
2023/01/23 08:40:12;;;;;;;2.30;1.00;;;2.00;99.90;;;;;;5078585;28;21020;-65
2023/01/23 08:42:38;;;;;;;0.55;0.55;;;2.00;99.90;;;;;;5080129;28;20427;-65
2023/01/23 08:45:06;;;;;;;1.00;0.70;;;2.00;99.90;;;;;;5075943;28;20429;-67
2023/01/23 08:47:35;;;;;;;0.55;0.55;;;2.20;99.90;;;;;;5082251;28;20425;-72
2023/01/23 08:50:03;;;;;;;2.10;0.80;;;2.30;99.90;;;;;;5067890;28;20452;-68
2023/01/23 08:52:30;;;;;;;0.55;0.55;;;2.40;99.90;;;;;;5090668;28;20424;-67
2023/01/23 08:54:57;;;;;;;1.17;1.13;;;2.50;99.90;;;;;;5082786;28;20427;-68
2023/01/23 08:57:24;;;;;;;0.50;0.50;;;2.60;99.90;;;;;;5081410;28;20427;-68
2023/01/23 08:59:50;;;;;;;0.40;0.40;;;2.60;99.90;;;;;;5073431;28;21123;-68
2023/01/23 09:02:17;;;;;;;0.38;0.38;;;2.70;99.90;;;;;;5077248;28;20453;-67
2023/01/23 09:04:45;;;;;;;0.38;0.38;;;2.70;99.90;;;;;;5076780;28;20452;-67
2023/01/23 09:07:12;;;;;;;0.90;0.82;;;2.70;99.90;;;;;;5083637;28;20429;-68
2023/01/23 09:09:39;;;;;;;0.40;0.40;;;2.70;99.90;;;;;;5068401;28;20435;-68
2023/01/23 09:15:46;;;;;;;0.70;0.47;;;2.80;99.90;;;;;;5063457;28;20504;-68
2023/01/23 09:18:13;;;;;;;0.90;0.90;;;2.80;99.90;;;;;;5074040;28;20450;-67
2023/01/23 09:20:40;;;;;;;0.63;0.60;;;2.80;99.90;;;;;;5081272;28;20456;-67
2023/01/23 09:23:07;;;;;;;0.40;0.40;;;2.90;99.90;;;;;;5077110;28;20426;-68
2023/01/23 09:25:33;;;;;;;0.38;0.32;;;2.90;99.90;;;;;;5072757;28;20437;-67
2023/01/23 09:28:00;;;;;;;0.70;0.45;;;2.90;99.90;;;;;;5084661;28;20562;-67
2023/01/23 09:30:27;;;;;;;0.50;0.50;;;2.80;99.90;;;;;;5067834;28;20432;-67
2023/01/23 09:32:54;;;;;;;1.38;1.02;;;2.80;99.90;;;;;;5085609;28;20507;-68
2023/01/23 09:35:22;;;;;;;0.55;0.55;;;3.00;99.90;;;;;;5078442;28;20435;-67
2023/01/23 09:37:58;;;;;;;0.70;0.70;;;3.10;99.90;;;;;;5094414;28;20435;-67
2023/01/23 09:40:43;;;;;;;1.00;0.90;;;3.10;99.90;;;;;;5064644;28;20433;-68
2023/01/23 09:43:34;;;;;;;1.10;1.10;;;3.20;99.90;;;;;;5078226;28;20524;-70
2023/01/23 09:46:11;;;;;;;0.80;0.80;;;3.20;99.90;;;;;;5081447;28;20923;-67
2023/01/23 09:49:13;;;;;;;0.47;0.40;;;3.30;99.90;;;;;;5077164;28;20546;-67
2023/01/23 09:51:59;;;;;;;1.80;0.60;;;3.30;99.90;;;;;;5077165;28;20427;-68
2023/01/23 09:54:54;;;;;;;0.88;0.82;;;3.40;99.90;;;;;;5076316;28;20441;-67
2023/01/23 09:57:32;;;;;;;1.80;0.88;;;3.50;99.90;;;;;;5076253;28;20437;-67
2023/01/23 10:00:10;;;;;;;0.80;0.70;;;3.60;99.90;;;;;;5076506;28;20426;-67
2023/01/23 10:02:36;;;;;;;1.10;0.77;;;3.70;99.90;;;;;;5088683;28;20476;-67
2023/01/23 10:05:04;;;;;;;0.50;0.50;;;3.70;99.90;;;;;;5086037;28;20521;-67
2023/01/23 10:07:43;;;;;;;0.90;0.80;;;3.80;99.90;;;;;;5083210;28;20891;-67
2023/01/23 10:13:50;;;;;;;0.60;0.60;;;3.60;99.90;;;;;;5057854;28;20483;-65
2023/01/23 10:16:39;;;;;;;0.40;0.40;;;3.70;99.90;;;;;;5079367;28;20431;-65
2023/01/23 10:19:56;;;;;;;1.50;1.20;;;3.70;99.90;;;;;;5066495;28;20426;-65
2023/01/23 10:22:40;;;;;;;1.13;0.63;;;3.50;99.90;;;;;;5075043;28;20440;-65
2023/01/23 10:25:25;;;;;;;0.70;0.65;;;3.60;99.90;;;;;;5073274;28;20453;-65
2023/01/23 10:27:57;;;;;;;1.05;1.05;;;3.60;99.90;;;;;;5068369;28;20439;-65
2023/01/23 10:30:37;;;;;;;0.98;0.98;;;3.60;99.90;;;;;;5071621;28;20438;-65
2023/01/23 10:33:17;;;;;;;1.70;1.38;;;3.70;99.90;;;;;;5077189;28;20428;-66
2023/01/23 10:35:57;;;;;;;0.70;0.70;;;3.70;99.90;;;;;;5074967;28;20453;-66
2023/01/23 10:38:45;;;;;;;1.10;0.90;;;3.70;99.90;;;;;;5074481;28;20432;-66
2023/01/23 10:41:16;;;;;;;1.10;0.77;;;3.70;99.90;;;;;;5076249;28;20425;-67
2023/01/23 10:43:49;;;;;;;0.55;0.55;;;3.60;99.90;;;;;;5073978;28;20546;-66
2023/01/23 10:46:44;;;;;;;0.35;0.32;;;3.60;99.90;;;;;;5073963;28;20429;-66
2023/01/23 10:49:10;;;;;;;0.90;0.90;;;3.70;99.90;;;;;;5070781;28;20443;-66
2023/01/23 10:51:37;;;;;;;0.80;0.80;;;3.70;99.90;;;;;;5078033;28;20434;-66
2023/01/23 10:54:11;;;;;;;0.95;0.95;;;3.70;99.90;;;;;;5078333;28;20431;-66
2023/01/23 10:57:22;;;;;;;1.98;0.77;;;3.60;99.90;;;;;;5085198;28;20433;-66
2023/01/23 11:00:17;;;;;;;0.45;0.45;;;3.40;99.90;;;;;;5073700;28;20421;-66
2023/01/23 11:02:44;;;;;;;2.90;0.97;;;3.30;99.90;;;;;;5041301;28;20433;-66
2023/01/23 11:05:33;;;;;;;0.83;0.83;;;3.40;99.90;;;;;;5039046;28;20433;-66
2023/01/23 11:08:27;;;;;;;0.60;0.60;;;3.50;99.90;;;;;;5038464;28;20437;-66
2023/01/23 11:11:14;;;;;;;0.73;0.73;;;3.60;99.90;;;;;;5039127;28;20433;-66
2023/01/23 11:13:43;;;;;;;0.85;0.80;;;3.80;99.90;;;;;;5041535;28;20524;-66
2023/01/23 11:16:15;;;;;;;0.90;0.90;;;3.90;99.90;;;;;;5041458;28;20998;-66
2023/01/23 11:19:11;;;;;;;1.25;0.98;;;4.00;99.90;;;;;;5043067;28;20439;-66
2023/01/23 11:21:51;;;;;;;0.65;0.65;;;4.10;99.90;;;;;;5037187;28;20421;-66
2023/01/23 11:24:20;;;;;;;0.93;0.80;;;4.30;99.90;;;;;;5040650;28;20438;-66
2023/01/23 11:27:16;;;;;;;1.55;1.08;;;4.40;99.90;;;;;;5039849;28;20846;-66
2023/01/23 11:29:57;;;;;;;0.70;0.70;;;4.30;99.90;;;;;;5043319;28;20425;-66
2023/01/23 11:32:24;;;;;;;0.70;0.70;;;4.40;99.90;;;;;;5035280;28;20442;-66
2023/01/23 11:34:59;;;;;;;0.77;0.68;;;4.50;99.90;;;;;;5038853;28;20443;-66
2023/01/23 11:37:35;;;;;;;2.20;0.80;;;4.70;99.90;;;;;;5038089;28;20430;-66
2023/01/23 11:40:16;;;;;;;1.40;1.00;;;4.40;99.90;;;;;;5065470;28;21020;-66
2023/01/23 11:42:46;;;;;;;0.80;0.80;;;4.50;99.90;;;;;;5078938;28;20447;-66
2023/01/23 11:45:29;;;;;;;0.93;0.90;;;4.40;99.90;;;;;;5078040;28;20466;-66
2023/01/23 11:48:22;;;;;;;0.60;0.60;;;4.60;99.90;;;;;;5069195;28;20517;-65
2023/01/23 11:50:52;;;;;;;0.50;0.50;;;4.60;99.90;;;;;;5079382;28;20430;-66
2023/01/23 11:53:42;;;;;;;0.75;0.75;;;4.50;99.90;;;;;;5075250;28;20439;-66
2023/01/23 11:56:27;;;;;;;1.30;0.50;;;4.50;99.90;;;;;;5069471;28;20421;-66
2023/01/23 11:59:15;;;;;;;0.40;0.40;;;4.40;99.90;;;;;;5079646;28;20925;-66
2023/01/23 12:02:23;;;;;;;1.00;0.82;;;4.10;99.90;;;;;;5076394;28;20439;-66
2023/01/23 12:05:26;;;;;;;1.02;1.02;;;3.90;99.90;;;;;;5064555;28;20576;-66
2023/01/23 12:08:09;;;;;;;0.60;0.60;;;4.00;99.90;;;;;;5082370;28;20472;-66
2023/01/23 12:10:52;;;;;;;2.30;0.70;;;4.00;99.90;;;;;;5081803;28;20447;-66
2023/01/23 12:13:40;;;;;;;0.50;0.50;;;4.20;99.90;;;;;;5083949;28;20435;-66
2023/01/23 12:16:31;;;;;;;0.20;0.20;;;4.30;99.90;;;;;;5084751;28;20432;-66
2023/01/23 12:19:10;;;;;;;0.47;0.47;;;4.40;99.90;;;;;;5085122;28;20436;-66
2023/01/23 12:21:53;;;;;;;1.42;1.30;;;4.50;99.90;;;;;;5088746;28;20502;-66
2023/01/23 12:24:43;;;;;;;0.73;0.73;;;4.60;99.90;;;;;;5073617;28;20437;-66
2023/01/23 12:27:26;;;;;;;0.75;0.75;;;4.50;99.90;;;;;;5077240;28;20421;-67
2023/01/23 12:30:20;;;;;;;0.50;0.50;;;4.40;99.90;;;;;;5070672;28;20433;-68
2023/01/23 12:33:11;;;;;;;0.90;0.60;;;4.40;99.90;;;;;;5077574;28;20442;-69
2023/01/23 12:36:01;;;;;;;1.15;0.90;;;4.40;99.90;;;;;;5074737;28;20435;-69
2023/01/23 12:38:46;;;;;;;0.80;0.80;;;4.40;99.90;;;;;;5077102;28;20422;-68
2023/01/23 12:41:51;;;;;;;1.25;0.63;;;4.50;99.90;;;;;;5082595;28;20802;-68
2023/01/23 12:44:29;;;;;;;0.90;0.90;;;4.60;99.90;;;;;;5040097;28;20437;-68
2023/01/23 12:47:04;;;;;;;1.92;0.77;;;4.60;99.90;;;;;;5043650;28;20465;-68
2023/01/23 12:49:36;;;;;;;0.93;0.77;;;4.60;99.90;;;;;;5021719;28;20429;-68
2023/01/23 12:52:12;;;;;;;1.15;0.55;;;4.50;99.90;;;;;;5036568;28;20438;-67
2023/01/23 12:54:45;;;;;;;1.00;0.73;;;4.40;99.90;;;;;;5048199;28;20429;-67
2023/01/23 12:57:12;;;;;;;0.82;0.82;;;4.30;99.90;;;;;;5041263;28;20452;-68
2023/01/23 13:00:02;;;;;;;0.90;0.60;;;4.40;99.90;;;;;;5044400;28;20440;-68
2023/01/23 13:02:37;;;;;;;0.52;0.52;;;5.00;99.90;;;;;;5045591;28;20512;-68
2023/01/23 13:05:25;;;;;;;0.55;0.55;;;5.80;99.90;;;;;;5042358;28;21045;-67
2023/01/23 13:07:53;;;;;;;0.65;0.65;;;6.60;99.90;;;;;;5027454;28;20429;-67
2023/01/23 13:13:30;;;;;;;1.90;1.23;;;7.60;99.90;;;;;;5035865;28;21796;-68
2023/01/23 13:16:10;;;;;;;1.50;0.70;;;7.50;99.90;;;;;;5044749;28;20441;-68
2023/01/23 13:27:46;;;;;;;0.70;0.70;;;7.40;99.90;;;;;;5080597;28;20434;-67
2023/01/23 13:30:39;;;;;;;0.80;0.80;;;6.80;99.90;;;;;;5085746;28;20455;-67
2023/01/23 13:33:12;;;;;;;0.75;0.75;;;6.40;99.90;;;;;;5086701;28;20426;-67
2023/01/23 13:35:39;;;;;;;0.77;0.70;;;6.10;99.90;;;;;;5085221;28;20483;-67
2023/01/23 13:38:31;;;;;;;0.73;0.73;;;5.90;99.90;;;;;;5087264;28;20427;-68
2023/01/23 13:41:03;;;;;;;0.60;0.60;;;5.70;99.90;;;;;;5078041;28;20465;-67
2023/01/23 13:43:49;;;;;;;0.70;0.70;;;5.70;99.90;;;;;;5084035;28;20443;-67
2023/01/23 13:46:30;;;;;;;1.02;0.93;;;5.70;99.90;;;;;;5080397;28;20916;-67